Date,TemperatureHighF,TemperatureAvgF,TemperatureLowF,DewpointHighF,DewpointAvgF,DewpointLowF,HumidityHigh,HumidityAvg,HumidityLow,PressureMaxIn,PressureMinIn,WindSpeedMaxMPH,WindSpeedAvgMPH,GustSpeedMaxMPH,PrecipitationSumIn
2012-1-1,71.1,59.0,46.0,64.0,54.6,43.3,94,86,73,30.24,24.23,13,1,16,0.01
2012-1-2,62.6,50.8,40.8,59.2,36.5,23.0,89,59,41,30.18,24.23,21,3,21,0.00
2012-1-3,41.6,34.3,25.5,23.5,14.9,11.0,60,45,38,30.89,21.78,23,3,24,0.00
2012-1-4,52.3,35.0,22.3,27.3,19.8,13.0,70,55,35,30.45,30.26,11,0,11,0.00
2012-1-5,64.2,47.4,36.9,48.0,35.2,22.0,77,63,49,30.27,30.09,18,1,19,0.00
2012-1-6,70.3,49.7,34.9,53.6,40.7,30.9,92,73,46,30.20,20.43,10,0,10,0.00
2012-1-7,71.6,54.2,41.4,60.6,48.4,38.0,92,81,64,30.17,20.53,12,1,12,0.00
2012-1-8,75.2,57.7,44.8,62.2,51.1,42.0,93,80,58,30.24,20.53,9,0,10,0.01
2012-1-9,73.0,58.0,47.7,63.1,53.3,45.1,93,85,70,30.24,29.02,9,0,9,0.00
2012-1-10,72.0,58.8,46.0,63.5,54.7,44.0,94,86,73,30.10,20.43,9,0,9,0.00
2012-1-11,68.5,63.0,56.5,64.2,58.9,51.0,94,87,78,29.90,22.74,17,2,17,0.33
2012-1-12,69.6,58.7,44.6,58.8,52.1,41.7,93,80,62,29.87,22.25,25,2,25,0.00
2012-1-13,58.3,44.3,35.4,48.6,28.3,21.7,70,54,40,30.21,29.85,18,3,19,0.00
2012-1-14,52.5,40.4,30.2,29.3,24.6,19.0,66,54,39,30.36,22.83,14,2,16,0.00
2012-1-15,60.3,45.9,34.9,40.1,31.8,27.0,77,59,34,30.48,26.33,14,2,15,0.00
2012-1-16,60.8,46.3,32.2,51.8,40.3,27.0,89,80,70,30.54,30.35,14,2,16,0.00
2012-1-17,74.1,57.1,42.4,61.2,50.8,40.0,94,81,58,30.35,21.74,11,1,16,0.00
2012-1-18,63.2,59.2,45.9,59.7,54.1,41.0,90,83,74,30.05,21.74,13,1,13,0.02
2012-1-19,62.6,45.7,31.5,42.3,35.3,26.8,86,69,38,30.21,0.00,8,1,9,0.02
2012-1-20,71.4,55.2,36.5,57.2,46.8,32.0,91,75,54,30.18,20.53,12,2,12,0.00
2012-1-21,73.8,63.7,52.3,63.3,56.6,48.2,87,78,67,30.11,20.50,12,1,15,0.00
2012-1-22,63.5,58.7,53.4,59.5,56.1,52.0,96,91,84,30.20,29.98,15,3,16,0.00
2012-1-23,72.9,60.5,53.2,68.0,58.6,52.0,97,94,83,30.19,30.01,11,2,14,0.00
2012-1-24,73.0,63.6,57.2,69.3,61.2,55.0,98,92,86,30.19,28.41,7,0,8,0.01
2012-1-25,70.9,61.8,55.4,63.3,58.1,53.4,95,88,76,30.23,28.41,11,2,11,0.00
2012-1-26,75.7,64.3,54.1,70.2,61.5,52.5,96,91,82,30.11,28.41,14,2,18,0.00
2012-1-27,69.6,62.7,45.3,64.8,55.9,41.0,93,79,59,30.04,28.41,24,2,24,0.14
2012-1-28,67.5,51.2,38.7,53.4,42.9,36.0,92,75,50,30.20,28.41,14,1,15,0.00
2012-1-29,60.3,48.7,36.7,44.8,39.8,32.0,83,72,55,30.37,28.41,13,2,14,0.00
2012-1-30,61.5,44.7,30.2,43.7,32.9,27.0,90,67,35,30.46,20.53,12,1,12,0.00
2012-1-31,68.0,49.0,32.2,55.0,41.1,27.9,92,75,59,30.43,30.30,12,1,13,0.00
2012-2-1,73.6,59.1,44.1,63.7,53.2,41.5,92,81,67,30.30,22.97,13,1,13,0.00
2012-2-2,75.0,63.9,52.9,63.1,57.5,48.6,88,80,63,30.20,22.97,13,1,13,0.00
2012-2-3,64.6,59.4,51.8,57.4,54.0,48.0,92,83,75,30.33,22.97,23,6,24,0.00
2012-2-4,73.4,63.5,55.6,64.9,58.4,53.0,93,84,71,30.27,22.97,17,2,19,0.00
2012-2-5,77.4,66.0,57.6,69.4,60.7,53.6,95,84,67,30.07,22.97,17,1,17,0.00
2012-2-6,60.1,57.2,56.1,57.4,54.7,53.1,94,91,87,30.15,22.97,16,4,16,0.00
2012-2-7,61.0,53.9,46.6,53.8,49.9,43.9,91,86,76,30.15,30.07,8,2,10,0.00
2012-2-8,69.6,52.7,41.0,55.6,45.1,39.0,94,78,46,30.17,30.03,10,1,14,0.01
2012-2-9,60.3,51.2,43.0,52.0,44.5,35.6,88,78,69,30.24,30.12,15,2,17,0.00
2012-2-10,63.4,56.4,48.4,59.5,53.4,45.3,93,90,87,30.18,29.90,7,1,7,0.04
2012-2-11,55.9,48.9,32.7,52.3,39.4,14.0,94,72,45,30.19,29.84,25,4,27,0.02
2012-2-12,47.1,33.9,24.4,21.4,15.5,10.0,62,47,35,30.38,30.19,17,2,17,0.00
2012-2-13,55.2,37.9,21.4,34.7,25.8,14.0,77,63,42,30.34,0.00,10,0,11,0.00
2012-2-14,64.0,50.8,34.0,55.6,45.9,27.9,91,84,72,30.15,21.78,10,1,10,0.05
2012-2-15,61.0,57.8,54.3,59.2,56.2,52.9,96,95,91,30.22,0.00,10,1,10,0.16
2012-2-16,73.6,63.7,54.0,68.5,61.3,52.9,97,92,83,30.20,22.49,10,0,11,0.03
2012-2-17,65.7,61.3,52.7,62.4,58.3,50.2,94,90,86,30.09,29.98,10,2,10,0.00
2012-2-18,65.5,58.7,51.6,59.9,55.6,49.0,94,89,82,32.04,29.83,15,2,15,0.00
2012-2-19,81.7,66.2,58.5,74.5,60.8,50.0,97,84,60,32.04,29.57,21,3,22,0.88
2012-2-20,58.3,49.6,43.9,50.4,41.0,37.8,79,72,63,32.04,29.86,19,3,20,0.00
2012-2-21,69.3,54.2,42.3,60.4,48.8,39.0,90,82,66,32.04,30.08,8,1,9,0.00
2012-2-22,74.1,60.8,47.1,63.5,56.0,45.0,94,85,67,32.04,29.78,13,1,13,0.01
2012-2-23,82.8,73.0,65.8,71.0,66.8,63.5,95,82,65,32.04,29.74,18,3,21,0.00
2012-2-24,84.7,64.0,58.6,72.0,42.5,-99.9,86,65,61,32.04,22.12,26,-154,26,0.31
2012-2-25,57.2,31.5,50.5,33.3,-26.1,-99.9,47,22,35,30.27,22.12,13,-439,14,0.00
2012-2-26,57.6,42.6,50.7,52.2,16.0,-99.9,91,62,66,30.42,0.00,15,-278,15,0.09
2012-2-27,63.7,60.3,54.9,62.6,58.8,52.0,96,95,91,30.33,30.27,8,1,8,0.85
2012-2-28,64.9,60.6,58.1,61.9,58.9,56.0,97,94,88,30.34,30.25,14,2,14,0.01
2012-2-29,80.6,66.1,53.8,71.6,62.2,52.0,97,88,73,30.25,30.01,12,1,14,0.00
2012-3-1,76.5,70.8,65.1,70.3,65.9,62.4,92,85,77,30.03,29.90,16,2,17,0.00
2012-3-2,80.1,71.4,64.9,69.4,65.1,61.3,94,81,63,29.98,29.81,13,2,15,0.00
2012-3-3,76.5,67.4,58.3,69.3,63.3,56.8,95,87,78,29.82,29.65,16,2,16,2.16
2012-3-4,58.8,51.0,39.9,56.8,41.8,30.0,95,73,43,30.17,23.67,27,4,31,0.58
2012-3-5,72.1,56.3,38.8,48.4,38.5,29.1,79,54,33,30.40,30.16,22,2,25,0.00
2012-3-6,61.0,54.7,43.3,51.6,43.6,28.2,85,66,43,30.55,30.40,18,5,24,0.00
2012-3-7,72.7,62.1,53.8,61.3,54.6,50.5,90,78,55,30.48,30.34,14,2,19,0.00
2012-3-8,75.9,64.8,55.0,67.6,59.6,52.7,94,84,70,30.34,30.16,11,1,14,0.00
2012-3-9,80.4,68.4,60.1,70.0,63.2,58.0,95,84,65,30.19,26.94,14,2,15,0.01
2012-3-10,62.4,59.8,54.1,59.9,53.0,48.7,92,79,66,30.36,30.17,18,7,25,0.00
2012-3-11,68.5,63.1,58.5,61.9,58.2,55.0,91,84,77,30.40,30.31,14,5,20,0.00
2012-3-12,73.2,65.4,58.8,62.6,57.5,53.8,89,76,61,30.36,30.25,10,1,16,0.00
2012-3-13,76.6,65.5,55.8,66.9,59.2,52.5,93,81,64,30.27,30.16,10,1,12,0.00
2012-3-14,79.5,68.1,59.0,69.1,62.2,57.0,94,82,67,30.23,29.31,13,1,13,0.00
2012-3-15,80.1,66.7,54.7,69.4,61.1,52.7,95,83,63,30.27,23.22,12,1,12,0.00
2012-3-16,81.0,68.3,57.0,69.8,62.4,55.0,95,83,62,30.24,23.22,13,1,14,0.00
2012-3-17,81.9,69.5,59.0,70.7,63.5,57.0,95,82,66,30.22,23.22,11,1,12,0.00
2012-3-18,80.8,68.5,59.0,67.8,61.9,57.0,94,81,60,30.26,23.22,13,1,13,0.00
2012-3-19,80.8,68.3,57.2,69.4,61.5,55.4,95,80,57,30.19,23.22,11,1,13,0.00
2012-3-20,78.3,68.2,58.3,70.3,62.9,56.0,95,84,69,30.16,23.22,16,1,16,0.00
2012-3-21,78.6,68.5,60.4,71.6,64.2,58.0,95,87,75,30.19,23.22,16,2,18,0.05
2012-3-22,79.0,70.8,63.0,70.7,65.3,61.0,95,84,68,30.20,23.22,14,2,15,0.00
2012-3-23,82.8,70.9,61.7,72.3,65.9,59.9,95,85,70,30.12,23.22,12,1,13,0.08
2012-3-24,79.3,69.9,64.9,72.7,66.4,62.8,95,89,79,29.99,23.22,17,2,18,0.04
2012-3-25,74.8,66.1,56.3,64.8,56.1,49.0,92,72,48,29.84,26.35,20,2,20,0.00
2012-3-26,80.1,65.6,53.2,61.3,55.2,48.6,85,70,48,30.00,29.75,13,1,14,0.00
2012-3-27,69.4,62.1,53.1,64.8,57.9,50.5,93,86,80,30.21,29.75,22,4,22,0.01
2012-3-28,81.0,68.4,57.6,69.4,62.5,55.8,95,82,61,30.20,29.04,11,1,13,0.00
2012-3-29,85.1,71.7,60.3,68.5,61.3,55.2,91,72,46,30.03,29.88,11,1,15,0.00
2012-3-30,84.6,70.2,56.8,68.7,61.5,54.0,91,75,47,30.02,29.89,8,1,14,0.00
2012-3-31,72.9,68.9,63.9,69.1,64.9,61.5,93,87,80,29.93,29.77,5,0,10,0.16
2012-4-1,82.9,70.1,61.0,71.4,64.5,59.0,95,83,64,29.87,29.04,13,1,13,0.01
2012-4-2,87.4,74.3,64.6,72.7,65.0,60.6,92,75,50,29.84,29.04,11,1,17,0.00
2012-4-3,85.6,73.3,63.3,74.0,65.9,59.9,92,78,59,29.94,29.04,13,1,16,0.31
2012-4-4,84.4,73.2,64.5,73.4,66.4,61.3,94,80,59,29.92,26.62,14,1,17,0.04
2012-4-5,85.8,74.6,67.6,70.9,65.9,61.5,91,76,53,29.75,26.62,15,1,15,0.00
2012-4-6,70.0,62.6,49.8,64.6,58.1,46.0,91,85,78,30.06,29.65,17,2,19,0.00
2012-4-7,67.3,56.0,45.1,56.7,47.3,41.9,93,75,50,30.23,30.05,11,2,16,0.00
2012-4-8,77.4,61.2,45.1,59.7,49.8,41.9,91,69,45,30.21,30.04,11,1,13,0.00
2012-4-9,75.0,65.7,56.8,59.4,55.4,51.0,85,70,54,30.07,29.95,13,1,14,0.00
2012-4-10,79.9,65.4,52.3,59.4,54.5,49.8,92,71,43,30.05,21.13,13,1,13,0.00
2012-4-11,76.8,64.9,52.7,56.1,48.1,41.0,83,58,33,30.02,29.90,16,1,18,0.00
2012-4-12,63.9,56.3,46.4,50.4,45.7,38.8,82,68,61,30.17,30.00,20,3,20,0.00
2012-4-13,70.3,60.2,48.7,59.2,51.2,44.1,91,74,57,30.21,30.09,16,2,16,0.00
2012-4-14,74.8,64.3,50.4,64.8,56.5,45.1,88,76,66,30.28,30.17,17,2,17,0.00
2012-4-15,77.6,71.4,65.2,66.4,62.5,59.0,86,74,58,30.24,30.16,16,2,16,0.00
2012-4-16,81.9,69.9,57.9,68.5,62.4,55.6,93,78,58,30.22,30.12,13,1,13,0.00
2012-4-17,81.0,71.6,61.9,69.1,63.7,59.9,94,78,53,31.76,30.05,14,1,15,0.00
2012-4-18,80.4,71.1,66.0,68.0,64.7,61.7,92,80,63,30.05,26.62,10,1,10,0.82
2012-4-19,73.1,69.1,65.1,69.8,66.5,63.3,95,92,88,29.97,23.25,15,2,15,0.02
2012-4-20,75.4,70.6,67.5,70.5,67.6,65.7,94,90,83,29.92,23.25,14,2,14,0.00
2012-4-21,79.0,70.8,64.6,71.1,67.3,63.1,95,89,76,29.81,26.70,9,0,11,0.23
2012-4-22,73.8,67.0,60.4,68.5,62.8,48.6,96,87,65,29.65,26.72,21,2,21,0.00
2012-4-23,64.8,56.6,48.2,48.6,41.7,36.0,73,58,43,29.85,26.72,23,3,27,0.00
2012-4-24,70.5,56.8,41.2,45.5,39.9,33.1,73,55,37,29.95,25.11,22,2,22,0.00
2012-4-25,82.6,68.2,52.3,57.7,51.0,42.3,75,56,40,30.04,25.11,15,1,15,0.00
2012-4-26,88.2,73.7,57.6,65.8,58.5,51.6,85,61,42,30.04,21.07,14,1,16,0.00
2012-4-27,87.1,74.2,63.0,68.9,63.1,56.0,89,70,42,30.07,0.00,13,1,13,0.00
2012-4-28,87.3,75.0,62.4,71.2,64.9,58.5,89,72,47,30.09,23.34,10,1,13,0.00
2012-4-29,85.1,74.8,64.2,75.6,68.8,61.7,93,82,67,30.11,23.34,14,1,16,0.00
2012-4-30,81.0,72.2,61.7,73.6,67.3,59.5,95,85,74,30.14,23.34,15,1,15,0.00
2012-5-1,81.7,72.6,62.8,74.3,67.7,61.0,95,85,74,30.14,23.34,13,1,13,0.00
2012-5-2,81.7,73.7,62.8,73.4,68.2,61.0,95,84,69,30.12,23.34,15,1,15,0.00
2012-5-3,82.8,75.3,66.6,73.0,69.1,64.4,93,82,68,30.12,22.57,11,1,12,0.00
2012-5-4,85.6,75.8,66.4,76.5,70.6,64.0,93,84,73,31.01,22.57,11,1,11,0.00
2012-5-5,92.8,80.2,69.4,75.2,69.8,66.0,91,73,46,31.01,29.81,12,1,12,0.00
2012-5-6,86.9,76.2,70.5,74.3,68.8,65.0,87,78,64,31.01,29.82,15,1,15,0.01
2012-5-7,79.3,73.9,70.7,72.7,69.8,67.8,92,87,80,29.94,29.87,17,3,17,0.00
2012-5-8,79.0,73.5,68.2,73.4,69.9,66.0,94,89,81,29.91,29.81,13,1,13,0.52
2012-5-9,88.7,75.3,66.4,76.5,69.5,64.9,96,83,58,29.86,29.63,14,1,16,0.03
2012-5-10,78.6,69.3,60.8,65.5,60.9,56.3,93,76,55,29.90,24.70,14,1,14,0.01
2012-5-11,80.4,69.5,56.3,67.8,60.7,54.0,93,75,57,30.13,24.84,14,1,16,0.00
2012-5-12,79.0,72.5,63.7,67.6,62.5,57.0,83,72,58,30.24,23.46,15,2,15,0.00
2012-5-13,77.9,71.2,61.8,70.0,65.1,57.9,93,81,73,30.17,30.02,14,2,15,0.00
2012-5-14,83.5,72.5,67.6,73.4,68.1,65.0,94,86,73,30.04,29.88,16,1,16,1.32
2012-5-15,83.8,72.5,64.0,76.5,69.5,62.6,96,90,77,29.98,29.89,14,0,14,0.03
2012-5-16,80.3,74.1,68.2,76.0,70.4,66.0,95,88,82,29.95,28.25,8,0,9,0.01
2012-5-17,80.6,71.3,64.2,73.4,67.8,59.5,94,89,77,29.91,28.25,25,1,30,1.43
2012-5-18,75.6,67.9,64.4,71.1,66.0,62.6,96,94,85,29.98,28.25,12,1,12,1.12
2012-5-19,78.4,67.9,59.7,68.4,61.6,55.0,95,82,59,30.02,26.03,16,2,16,1.12
2012-5-20,71.2,63.7,59.0,66.7,59.0,54.5,93,85,70,30.03,29.92,16,1,17,0.34
2012-5-21,82.8,71.7,63.1,72.0,66.8,61.3,95,85,68,29.97,29.86,11,1,11,0.01
2012-5-22,84.9,73.2,63.9,74.8,67.4,58.8,93,83,61,29.90,29.78,26,1,26,1.19
2012-5-23,87.6,74.4,61.7,75.7,68.4,59.9,95,83,56,29.88,22.92,13,1,13,0.01
2012-5-24,88.0,78.5,72.3,77.2,72.8,69.0,94,83,64,29.94,22.70,17,1,17,0.00
2012-5-25,86.0,76.8,69.4,75.9,71.3,67.3,96,84,67,30.04,24.03,11,1,13,0.00
2012-5-26,88.5,77.2,68.4,76.8,70.2,66.4,94,80,58,30.04,29.94,12,2,17,0.00
2012-5-27,80.4,75.8,70.5,74.5,71.5,67.5,91,87,80,29.96,28.68,30,8,30,0.38
2012-5-28,82.8,76.2,71.8,77.5,72.7,68.7,94,89,82,29.87,26.17,26,6,29,1.09
2012-5-29,77.4,74.2,71.8,75.6,72.6,69.0,96,95,89,29.87,26.17,22,2,22,1.47
2012-5-30,88.5,78.1,71.2,77.2,72.9,69.0,96,85,63,29.81,26.17,12,1,12,0.00
2012-5-31,86.8,77.5,70.0,79.3,73.1,68.2,95,87,73,29.86,26.17,12,1,12,0.07
2012-6-1,85.5,75.3,69.6,77.9,72.2,67.6,95,90,75,29.87,26.17,11,0,11,0.54
2012-6-2,84.4,75.3,66.2,74.5,66.9,58.8,96,78,46,29.90,26.17,16,1,17,0.02
2012-6-3,88.0,74.7,59.0,70.0,63.9,55.4,89,71,50,30.00,22.75,12,1,12,0.00
2012-6-4,88.9,77.5,71.2,76.1,70.4,64.0,92,79,64,29.86,29.71,23,1,27,0.32
2012-6-5,87.1,73.5,67.1,77.2,70.0,65.0,94,89,70,29.82,20.69,15,1,15,0.96
2012-6-6,82.6,73.9,69.6,77.9,71.4,68.0,96,92,85,30.26,29.75,13,1,14,0.12
2012-6-7,75.4,73.1,70.9,71.1,68.9,65.8,93,87,80,30.26,29.88,16,3,16,0.05
2012-6-8,78.1,71.3,66.0,69.6,66.1,63.7,93,84,71,30.26,29.92,17,3,17,0.28
2012-6-9,76.1,71.4,66.0,73.0,68.4,63.5,95,90,78,30.26,29.94,15,1,15,0.80
2012-6-10,83.1,75.8,68.7,79.5,74.1,67.0,97,94,87,30.26,29.01,15,1,15,0.16
2012-6-11,85.3,78.2,70.7,80.1,75.4,68.0,97,91,83,30.09,29.99,16,2,19,0.48
2012-6-12,88.0,77.2,70.7,79.9,73.7,69.0,97,89,74,30.06,29.87,16,1,16,0.04
2012-6-13,90.7,79.5,72.3,79.9,74.3,70.9,96,85,60,29.91,29.82,7,1,16,0.07
2012-6-14,82.8,77.0,71.8,77.2,72.7,67.1,95,87,79,30.04,26.72,18,2,21,0.00
2012-6-15,79.5,74.6,69.3,72.9,67.4,64.9,93,79,61,30.08,26.72,18,3,18,0.00
2012-6-16,80.8,74.4,67.6,70.9,65.1,60.4,90,74,52,30.14,20.15,24,3,24,0.00
2012-6-17,79.2,71.9,63.9,71.1,64.9,61.0,93,80,65,30.09,22.08,16,2,16,0.00
2012-6-18,81.7,72.1,61.3,70.9,65.3,59.0,94,80,62,30.07,26.99,13,1,13,0.00
2012-6-19,83.5,74.5,64.0,74.3,68.5,62.0,95,82,69,30.12,26.33,15,1,15,0.01
2012-6-20,82.8,75.2,66.7,73.9,68.7,64.6,94,81,67,30.10,30.03,17,2,17,0.00
2012-6-21,83.1,75.6,68.2,74.5,69.4,65.5,94,82,68,30.04,29.92,13,2,14,0.00
2012-6-22,84.9,76.2,67.3,76.8,71.8,65.0,95,86,76,29.92,29.85,11,1,11,0.00
2012-6-23,87.3,79.8,72.1,80.2,75.4,70.7,96,87,76,29.93,24.50,13,1,13,0.00
2012-6-24,82.9,76.7,72.7,79.3,74.2,70.7,96,92,85,29.95,25.47,13,1,13,0.21
2012-6-25,84.0,77.5,73.2,80.4,75.2,72.0,97,93,85,29.84,25.47,17,3,18,1.89
2012-6-26,75.6,73.2,70.5,74.7,71.8,67.6,97,95,90,29.71,25.47,22,3,22,2.23
2012-6-27,83.8,74.0,65.8,70.0,65.0,61.7,90,75,48,29.97,24.01,18,2,20,0.00
2012-6-28,91.3,77.0,63.0,73.2,66.8,61.0,94,73,45,30.05,24.01,10,0,10,0.00
2012-6-29,95.0,83.3,71.4,78.8,72.3,64.9,82,70,58,29.96,24.01,12,1,12,0.00
2012-6-30,97.3,86.3,75.7,84.2,77.9,72.0,89,77,63,29.89,24.01,10,1,10,0.00
2012-7-1,95.7,85.3,72.3,85.1,78.2,68.5,89,80,70,30.09,24.01,33,1,33,0.25
2012-7-2,90.0,80.3,72.1,78.1,73.6,68.9,91,81,65,30.07,24.01,12,1,12,0.01
2012-7-3,94.8,83.7,73.6,80.8,75.6,71.0,94,78,58,30.01,24.01,11,1,11,0.00
2012-7-4,91.9,80.4,71.8,79.2,74.0,68.5,91,81,64,30.04,24.01,14,0,14,0.02
2012-7-5,93.7,83.1,74.5,81.7,76.4,71.6,92,81,62,29.99,24.01,8,1,10,0.00
2012-7-6,93.6,82.1,75.9,80.8,75.5,69.4,91,81,61,29.99,24.01,16,1,18,0.00
2012-7-7,94.5,83.6,75.9,79.5,76.2,71.8,91,79,58,30.04,23.83,15,1,15,0.00
2012-7-8,95.2,84.7,74.8,79.5,75.2,70.7,88,74,53,30.05,23.83,14,1,14,0.00
2012-7-9,94.3,85.0,77.0,81.0,76.8,72.7,88,77,58,29.97,29.88,14,1,14,0.00
2012-7-10,93.6,83.5,75.9,79.7,75.5,70.7,88,77,59,30.00,29.88,12,1,13,0.00
2012-7-11,91.2,80.8,73.6,80.1,74.1,70.0,91,81,66,30.02,29.94,14,0,14,0.00
2012-7-12,88.0,81.2,73.6,80.1,75.2,70.9,94,82,69,30.03,29.96,13,1,13,0.00
2012-7-13,87.8,81.9,75.7,80.1,76.2,73.4,94,83,73,30.08,29.99,15,2,15,0.00
2012-7-14,88.2,81.6,75.2,80.1,75.6,72.1,94,83,71,30.13,30.04,14,1,15,0.01
2012-7-15,87.3,79.7,73.0,79.2,74.5,71.0,95,85,73,30.12,0.00,12,1,14,0.00
2012-7-16,87.1,79.2,72.7,80.1,75.1,70.9,95,87,77,30.06,26.62,8,0,8,0.40
2012-7-17,85.6,79.3,74.1,78.8,75.2,72.0,95,88,79,29.98,24.99,7,0,8,0.00
2012-7-18,89.1,79.8,72.9,79.9,74.4,70.3,94,84,69,30.04,24.99,12,1,12,0.00
2012-7-19,84.7,78.2,74.5,79.2,74.8,71.0,93,89,82,30.10,24.99,14,0,20,0.49
2012-7-20,91.8,80.5,75.4,81.0,75.7,70.5,94,86,68,30.06,25.45,21,0,21,0.00
2012-7-21,92.1,81.5,70.5,80.2,74.9,68.2,95,81,61,30.09,25.45,11,0,11,0.00
2012-7-22,90.3,83.5,77.4,80.6,77.1,74.3,93,82,63,30.15,28.06,12,1,13,0.00
2012-7-23,88.9,82.3,74.5,79.9,76.2,72.1,94,82,71,30.16,28.06,13,1,13,0.00
2012-7-24,93.7,83.5,72.7,80.8,75.4,70.0,92,78,59,30.08,28.06,12,1,12,0.00
2012-7-25,94.7,85.0,76.6,83.1,77.5,73.0,90,79,65,31.15,29.75,11,0,11,0.00
2012-7-26,95.0,84.5,76.3,83.3,77.9,73.8,92,81,67,31.15,29.87,14,1,14,0.00
2012-7-27,95.7,84.1,75.2,82.0,76.4,71.6,90,78,60,31.15,29.89,11,1,11,0.00
2012-7-28,94.8,82.0,75.0,81.0,75.7,70.3,92,82,60,31.15,29.91,15,1,15,0.20
2012-7-29,95.2,81.6,72.5,83.5,76.6,67.0,95,86,64,31.15,29.86,24,1,24,1.49
2012-7-30,88.3,78.2,75.0,83.8,75.5,71.8,96,92,85,31.15,29.88,9,0,9,0.00
2012-7-31,90.9,79.0,74.5,82.0,75.5,70.0,95,89,74,31.15,29.86,19,1,19,0.65
2012-8-1,91.8,80.8,74.3,82.4,76.5,72.5,95,87,70,31.15,29.82,11,1,12,0.18
2012-8-2,93.6,80.6,72.9,83.1,75.4,68.4,93,85,64,31.15,29.83,15,0,17,0.03
2012-8-3,88.3,80.5,71.2,80.4,75.5,69.8,95,85,73,31.15,29.89,12,1,14,0.01
2012-8-4,86.7,79.6,73.2,79.7,74.7,69.8,95,85,75,31.15,29.99,17,2,17,0.16
2012-8-5,84.0,77.9,74.3,79.3,75.2,72.1,96,92,85,31.15,30.02,15,1,16,1.17
2012-8-6,88.5,81.9,76.6,81.7,77.7,74.3,95,88,75,31.15,29.96,12,1,12,0.00
2012-8-7,88.5,80.2,76.3,80.1,76.3,72.5,94,88,75,31.15,29.94,14,0,14,0.11
2012-8-8,84.6,77.8,74.7,80.8,75.7,73.0,95,93,87,31.15,29.92,8,0,9,0.74
2012-8-9,90.7,79.1,74.5,82.6,75.9,72.5,97,90,75,31.15,29.84,17,0,17,0.11
2012-8-10,90.3,80.9,74.5,81.1,75.5,72.7,96,85,61,31.15,29.86,16,1,16,0.01
2012-8-11,90.3,79.2,72.5,81.0,74.7,70.0,94,87,68,31.15,29.83,8,0,13,0.22
2012-8-12,89.4,80.4,73.2,80.4,76.1,71.4,95,87,72,31.15,29.89,10,0,13,0.02
2012-8-13,89.8,80.7,73.9,80.2,75.7,71.0,96,85,69,31.15,29.92,8,0,9,0.01
2012-8-14,92.7,78.8,68.2,80.6,73.7,66.2,96,85,62,31.15,29.88,11,0,11,0.07
2012-8-15,88.3,77.4,72.5,82.2,74.5,70.0,96,91,80,31.15,29.89,13,0,13,0.71
2012-8-16,92.5,79.6,72.3,82.9,75.4,70.9,96,88,69,31.15,29.91,15,0,15,0.01
2012-8-17,83.5,75.3,71.6,79.9,73.1,69.8,96,93,87,31.15,29.86,9,0,13,1.62
2012-8-18,90.3,80.5,73.4,81.1,76.0,72.3,97,87,67,31.15,29.80,11,0,11,0.00
2012-8-19,86.9,79.9,73.2,80.6,75.8,70.5,94,87,79,31.15,29.81,12,1,13,0.10
2012-8-20,84.9,76.6,73.0,79.5,74.1,70.9,96,92,82,31.15,29.86,11,0,11,0.23
2012-8-21,79.0,74.7,71.2,76.5,72.9,70.0,97,94,90,31.15,29.90,6,0,6,0.02
2012-8-22,82.2,75.2,71.2,77.4,73.1,69.8,96,93,85,31.15,29.97,7,0,7,0.36
2012-8-23,80.8,72.7,68.0,78.6,71.4,66.9,98,96,91,31.15,27.30,11,0,14,0.83
2012-8-24,83.3,74.2,68.0,77.0,71.2,67.0,98,91,78,30.70,27.31,13,1,13,0.00
2012-8-25,80.2,74.3,69.1,74.1,69.8,65.8,96,86,73,30.09,30.01,13,2,17,0.00
2012-8-26,82.9,75.9,67.6,75.6,70.7,65.0,96,85,70,30.89,20.28,19,3,21,0.01
2012-8-27,83.3,79.0,76.3,80.8,76.9,74.5,96,93,88,29.97,29.89,11,2,15,0.47
2012-8-28,87.1,80.4,74.5,82.2,77.3,70.9,95,91,84,29.96,29.87,8,1,13,0.14
2012-8-29,89.8,78.9,73.2,82.8,75.9,71.8,97,91,78,29.98,29.89,4,0,11,0.16
2012-8-30,87.3,78.1,73.8,82.6,75.9,72.0,97,93,84,30.12,29.94,11,0,14,0.03
2012-8-31,87.3,79.6,74.7,82.4,77.3,73.8,98,93,82,30.19,30.09,7,0,11,0.01
2012-9-1,90.9,80.6,73.0,81.9,76.2,72.0,97,87,71,30.15,30.02,6,0,8,0.00
2012-9-2,90.7,81.2,73.9,82.2,76.3,72.0,95,86,72,30.70,26.75,9,0,9,0.00
2012-9-3,89.1,80.3,75.6,81.3,75.3,71.8,93,85,76,30.70,26.75,11,0,11,0.34
2012-9-4,91.0,80.1,73.4,80.4,74.9,70.7,94,85,67,30.70,26.75,10,0,10,0.39
2012-9-5,88.5,79.6,71.4,81.1,75.5,70.3,97,88,74,29.94,29.87,8,0,9,0.01
2012-9-6,90.7,80.1,73.4,80.1,75.3,71.8,96,86,67,30.12,20.01,9,0,9,0.00
2012-9-7,92.1,81.2,73.8,81.1,75.6,72.0,95,84,61,30.12,20.03,10,0,11,0.00
2012-9-8,88.0,78.3,73.8,80.6,75.1,71.0,96,90,79,29.87,23.56,12,0,12,1.15
2012-9-9,85.3,78.1,73.6,79.7,74.9,69.8,97,90,77,31.77,23.63,10,1,10,0.11
2012-9-10,80.8,73.7,64.4,72.7,66.6,59.9,94,80,59,30.73,29.91,14,2,16,0.00
2012-9-11,82.0,72.7,62.2,72.3,65.1,60.0,95,78,62,30.17,22.11,18,2,18,0.00
2012-9-12,80.4,75.2,68.0,72.7,68.2,64.0,89,79,67,32.22,30.12,21,3,21,0.00
2012-9-13,76.1,71.2,68.2,73.8,68.7,65.0,96,92,80,32.22,20.98,18,1,18,1.14
2012-9-14,81.3,74.7,69.1,77.4,72.0,68.0,97,91,82,30.12,20.98,17,2,17,0.01
2012-9-15,82.4,75.1,68.5,75.6,70.5,66.7,96,86,72,30.70,20.98,12,1,13,0.01
2012-9-16,81.9,74.5,68.2,77.7,71.8,66.4,96,91,85,30.70,20.98,14,0,14,0.26
2012-9-17,85.1,78.0,70.0,78.6,73.8,68.7,97,87,74,30.01,20.92,14,2,16,0.26
2012-9-18,80.1,76.0,71.6,75.2,73.1,69.6,95,91,83,32.22,20.92,18,1,19,0.22
2012-9-19,84.6,75.7,69.4,76.8,71.8,68.0,96,88,71,30.01,20.46,8,-3,8,0.01
2012-9-20,78.3,73.7,70.9,74.5,71.3,69.0,95,92,87,32.33,20.46,14,1,14,0.00
2012-9-21,79.9,74.3,70.0,75.4,71.2,67.6,96,90,80,30.73,29.30,13,1,13,0.02
2012-9-22,86.4,74.9,68.4,77.4,70.5,66.7,96,87,71,30.73,29.93,11,0,12,0.00
2012-9-23,83.8,74.6,61.9,76.0,67.5,57.0,95,80,54,30.49,20.98,11,1,12,0.01
2012-9-24,82.1,69.0,55.6,68.7,60.5,53.2,93,76,52,30.70,20.94,11,1,11,0.00
2012-9-25,78.6,71.0,64.6,69.1,64.1,60.6,93,80,64,30.16,20.98,19,2,19,0.00
2012-9-26,82.6,74.0,65.1,76.8,70.5,62.0,94,89,82,32.47,22.25,16,2,16,0.00
2012-9-27,81.9,75.0,68.7,77.5,71.4,66.0,96,89,77,32.33,22.25,12,1,15,0.00
2012-9-28,83.8,74.4,66.6,77.2,69.7,65.0,96,86,68,30.08,22.23,12,1,12,0.01
2012-9-29,86.5,74.9,65.7,76.8,69.7,64.0,96,85,66,29.99,20.01,7,0,7,0.00
2012-9-30,82.2,74.8,71.1,77.7,72.1,68.4,96,91,85,29.86,20.01,6,0,6,0.27
2012-10-1,86.0,77.8,69.1,80.4,74.6,68.0,98,90,76,32.01,20.01,16,1,16,0.03
2012-10-2,83.5,78.0,75.6,78.4,75.2,73.0,95,91,84,29.96,20.98,14,0,14,0.43
2012-10-3,80.1,74.4,70.9,75.6,72.0,69.1,96,92,83,30.15,27.80,5,0,5,0.11
2012-10-4,81.0,74.6,70.0,78.3,72.9,68.7,97,95,91,31.78,27.57,6,0,6,0.01
2012-10-5,80.8,75.6,72.1,76.8,73.3,71.0,97,93,86,30.13,27.57,14,1,14,0.00
2012-10-6,83.7,75.4,70.3,78.4,72.9,69.3,97,92,84,29.99,29.85,9,0,10,0.08
2012-10-7,86.9,75.9,67.6,79.7,72.6,64.9,97,90,78,30.00,24.07,16,1,19,2.07
2012-10-8,78.4,69.1,60.4,75.9,67.5,59.4,96,95,90,31.20,21.88,11,1,11,1.09
2012-10-9,65.0,59.0,56.1,62.6,57.7,55.0,97,95,91,30.11,26.72,8,1,9,0.00
2012-10-10,77.0,63.4,54.9,70.2,60.9,53.8,100,92,78,30.30,20.56,10,0,10,0.01
2012-10-11,75.9,65.4,55.8,66.0,60.5,54.3,96,85,67,30.21,21.31,13,1,13,0.01
2012-10-12,80.6,67.4,58.3,68.9,62.0,56.5,95,84,65,30.21,21.31,8,0,9,0.00
2012-10-13,77.4,69.9,62.1,70.9,65.8,60.0,95,87,78,31.84,30.15,22,4,22,0.00
2012-10-14,82.1,73.8,65.8,75.0,68.7,63.0,94,85,71,32.24,29.98,15,1,15,0.01
2012-10-15,84.0,73.8,66.6,76.3,69.5,64.4,95,87,71,32.24,29.76,10,0,11,0.00
2012-10-16,70.9,64.0,57.4,65.3,57.0,52.0,88,79,63,32.24,29.82,16,2,16,0.00
2012-10-17,73.0,64.0,55.2,68.2,60.6,52.7,94,89,82,32.24,29.83,10,0,10,0.00
2012-10-18,79.5,69.6,62.1,73.9,66.8,59.7,96,91,83,32.24,29.75,7,0,7,0.02
2012-10-19,77.5,69.7,59.2,70.9,63.2,54.7,96,81,54,29.85,27.54,11,0,11,0.14
2012-10-20,76.5,62.4,50.2,62.2,54.1,48.0,93,76,49,29.93,27.54,15,0,15,0.00
2012-10-21,75.6,61.6,49.6,61.3,55.0,46.9,92,80,59,30.10,27.52,14,1,14,0.00
2012-10-22,72.9,62.8,55.9,65.7,57.4,53.0,94,83,68,32.38,21.77,14,2,15,0.01
2012-10-23,76.3,66.8,57.2,70.3,62.7,53.8,94,87,77,31.73,30.05,17,2,17,0.01
2012-10-24,78.6,70.8,63.7,72.1,66.6,61.9,96,87,73,31.73,30.00,18,2,18,0.00
2012-10-25,80.4,74.2,69.8,73.9,70.4,67.0,96,88,76,30.00,29.91,21,3,21,0.01
2012-10-26,75.8,72.6,69.3,70.7,67.8,61.0,93,85,75,29.91,29.70,22,4,25,0.00
2012-10-27,71.3,68.7,66.0,64.8,63.1,61.0,87,82,78,32.10,29.55,19,3,20,0.00
2012-10-28,73.9,65.3,56.7,62.6,57.5,48.2,87,76,63,32.10,23.68,16,2,18,0.00
2012-10-29,63.1,54.3,45.9,48.2,42.1,34.0,81,64,49,29.76,22.24,19,3,20,0.00
2012-10-30,61.9,51.2,42.6,39.7,33.9,30.0,64,52,39,29.83,22.24,21,1,21,0.00
2012-10-31,68.4,54.9,43.0,46.4,39.4,30.0,68,56,43,29.93,22.24,24,1,24,0.00
2012-11-1,69.3,57.0,45.3,48.9,42.4,33.0,82,60,34,29.96,29.85,17,1,17,0.00
2012-11-2,75.4,57.0,39.4,54.3,44.9,33.8,84,66,45,31.83,27.14,14,0,14,0.00
2012-11-3,79.2,64.0,54.1,63.1,56.0,50.0,89,76,55,30.08,25.47,7,0,8,0.00
2012-11-4,82.6,69.2,59.0,71.6,61.6,54.5,92,78,57,30.04,25.47,10,0,10,0.00
2012-11-5,67.6,59.2,50.2,61.2,53.5,46.0,88,82,72,29.99,20.75,16,2,16,0.00
2012-11-6,66.4,56.2,46.0,60.3,52.7,42.4,93,88,77,29.98,29.80,10,1,11,0.43
2012-11-7,56.8,48.1,39.6,48.9,43.5,36.7,91,84,73,29.98,29.85,14,1,14,0.02
2012-11-8,63.3,50.1,41.9,54.0,45.2,38.5,93,84,64,30.16,29.97,10,1,10,0.00
2012-11-9,68.7,50.6,37.8,56.1,43.9,35.0,93,79,54,30.28,30.14,10,0,10,0.01
2012-11-10,69.3,54.0,40.3,59.4,47.3,37.6,92,79,57,30.35,0.00,10,1,10,0.00
2012-11-11,74.8,63.8,51.3,66.4,59.1,47.8,93,85,72,30.36,20.94,13,1,14,0.00
2012-11-12,71.1,63.7,56.8,68.0,61.5,54.7,95,93,89,30.29,30.17,13,0,15,0.04
2012-11-13,73.6,64.6,57.4,70.5,62.4,55.0,98,93,87,30.20,22.14,15,1,16,0.00
2012-11-14,57.4,54.3,52.9,55.0,52.5,50.9,95,94,92,32.47,29.84,17,4,17,0.01
2012-11-15,58.3,51.5,48.4,55.4,49.4,46.6,95,93,89,32.47,30.13,12,2,12,0.00
2012-11-16,53.6,50.1,46.2,51.4,48.1,44.6,99,93,91,32.47,30.18,11,1,11,0.00
2012-11-17,55.8,52.1,48.7,51.1,48.3,45.7,92,87,82,32.47,20.74,17,2,19,0.00
2012-11-18,65.1,56.3,50.0,56.8,50.7,46.0,89,82,72,31.89,20.74,18,2,18,0.00
2012-11-19,59.4,56.1,53.2,55.6,52.8,50.0,90,89,86,31.68,30.09,15,2,15,0.00
2012-11-20,67.1,56.8,49.6,58.3,52.3,47.0,93,85,72,31.68,26.96,13,1,13,0.00
2012-11-21,66.0,53.6,44.2,56.3,48.1,41.4,94,82,63,30.10,27.02,13,1,13,0.00
2012-11-22,64.8,49.4,39.0,47.7,40.5,34.3,91,73,47,30.20,27.02,15,1,16,0.00
2012-11-23,70.2,50.7,34.3,54.7,42.8,31.3,90,76,53,30.20,27.02,10,0,11,0.00
2012-11-24,63.0,51.8,36.9,48.2,41.5,30.6,83,69,46,30.10,27.02,13,1,13,0.00
2012-11-25,63.0,43.9,29.7,45.0,34.0,25.0,84,70,43,30.18,25.18,9,0,9,0.00
2012-11-26,68.4,48.3,31.8,50.5,38.1,28.4,92,70,39,30.26,30.14,6,0,6,0.00
2012-11-27,71.6,57.9,47.8,65.7,53.0,42.6,92,84,78,30.19,30.06,14,1,15,0.01
2012-11-28,55.4,51.5,41.7,52.7,49.0,39.4,94,91,88,30.46,30.14,13,1,13,0.00
2012-11-29,61.3,52.4,41.7,55.4,49.0,39.9,94,88,80,30.46,22.78,16,2,17,0.01
2012-11-30,68.0,58.7,49.3,61.5,54.8,47.0,92,87,77,30.34,22.78,11,1,11,0.00
2012-12-1,70.2,60.8,52.5,65.3,57.5,50.5,95,89,81,30.33,22.78,17,2,17,0.00
2012-12-2,72.7,61.0,52.0,66.7,57.3,50.0,95,88,77,30.33,22.78,10,1,11,0.01
2012-12-3,73.4,62.2,54.0,67.1,58.8,51.6,95,89,80,30.31,20.95,9,0,10,0.00
2012-12-4,73.9,61.8,52.2,67.5,57.5,49.0,95,86,71,30.33,30.21,7,0,7,0.00
2012-12-5,73.8,60.6,47.8,65.3,55.3,45.7,95,83,68,30.22,30.07,9,0,9,0.01
2012-12-6,66.0,61.1,57.6,62.1,57.7,54.0,92,89,85,31.68,30.03,17,4,18,0.00
2012-12-7,64.6,57.3,50.9,60.8,54.9,48.9,94,92,87,31.68,29.95,16,2,18,0.00
2012-12-8,68.7,58.3,50.0,64.8,56.4,48.4,96,93,86,31.68,29.99,7,0,7,0.00
2012-12-9,70.9,62.9,56.7,69.1,61.5,55.6,97,95,93,31.68,29.97,7,0,7,0.00
2012-12-10,79.0,68.4,60.8,69.1,64.8,59.7,98,89,68,29.98,21.05,10,1,10,0.00
2012-12-11,73.9,67.1,61.0,70.5,64.8,58.0,95,92,89,30.90,29.79,9,1,9,0.00
2012-12-12,61.2,55.8,53.2,58.5,54.0,51.6,96,93,91,31.68,25.87,14,1,15,0.47
2012-12-13,55.2,47.0,45.0,54.1,45.7,43.3,96,95,94,30.30,25.87,14,2,14,0.02
2012-12-14,57.6,50.5,46.2,53.2,47.9,43.0,96,91,78,30.34,30.17,14,2,14,0.00
2012-12-15,61.5,56.6,51.3,58.1,53.4,47.8,94,89,87,30.19,0.00,7,0,7,0.00
2012-12-16,74.3,62.4,55.6,69.6,60.2,54.3,96,93,84,31.10,27.73,9,0,10,0.01
2012-12-17,75.6,65.6,59.7,70.3,62.8,57.7,96,91,82,31.68,28.06,25,1,35,0.08
2012-12-18,67.5,59.4,42.3,61.5,52.8,36.3,96,80,53,30.01,25.04,20,1,20,0.00
2012-12-19,70.7,50.1,36.0,54.7,41.5,32.7,90,74,47,30.12,25.04,8,0,8,0.00
2012-12-20,72.1,57.8,41.5,66.2,53.4,37.6,93,86,77,30.08,28.89,20,2,20,0.32
2012-12-21,56.0,46.4,40.3,51.3,33.2,24.0,84,61,43,30.11,28.89,26,3,26,0.00
2012-12-22,55.8,41.1,30.2,33.8,26.4,19.0,71,56,41,30.23,21.68,15,1,15,0.00
2012-12-23,62.2,45.1,27.7,42.8,33.2,22.5,83,65,43,30.25,21.68,8,0,8,0.00
2012-12-24,66.8,53.5,39.6,55.9,46.1,34.0,88,76,66,30.14,21.68,12,0,13,0.00
2012-12-25,63.0,57.8,51.8,60.3,55.5,49.6,95,92,88,30.02,21.07,9,0,9,0.00
2012-12-26,69.1,59.0,40.1,65.5,53.6,32.9,94,83,68,29.94,26.97,26,4,26,0.22
2012-12-27,55.8,42.7,34.3,44.4,35.6,29.7,84,76,65,30.09,20.62,14,1,15,0.00
2012-12-28,56.7,44.7,30.9,49.3,40.3,27.9,91,85,76,30.16,20.62,6,0,6,0.00
2012-12-29,66.0,54.9,42.1,64.6,51.1,33.8,95,87,73,30.17,26.03,20,3,21,0.86
2012-12-30,51.6,39.9,30.7,38.1,31.6,25.7,82,72,57,30.41,25.11,14,1,16,0.00
2012-12-31,62.2,44.3,30.2,52.9,39.0,26.0,89,82,71,30.41,25.11,8,0,8,0.00
2013-1-1,73.2,57.0,41.9,63.9,51.9,38.8,94,84,69,30.21,25.11,13,0,13,0.00